Terminal Aerodrome Forecast
Issued by NWS

Home | Current Version | Previous Version | Text Only | Print | Product List | Glossary On
Versions: 1 2 3 4 5 6 7 8 9 10 11 12 13 14 15 16 17 18 19 20
909
FTUS41 KGYX 112341
TAFLEB
TAF
KLEB 112341Z 1200/1224 00000KT P6SM SKC
     FM120900 00000KT P6SM OVC027
     FM121100 VRB03KT 2SM -SN OVC014
     FM121400 VRB03KT 3/4SM -SN OVC008 WS020/12040KT
     FM121800 VRB03KT 1/2SM SNRA OVC007 WS020/13045KT=

USA.gov is the U.S. government's official web portal to all federal, state and local government web resources and services.